sensor_id;sensor_type;location;lat;lon;timestamp;P1;durP1;ratioP1;P2;durP2;ratioP2
11735;SDS011;5924;51.398;7.088;2023-04-26T00:02:01;2.67;;;2.47;;
11735;SDS011;5924;51.398;7.088;2023-04-26T00:04:29;2.73;;;2.53;;
11735;SDS011;5924;51.398;7.088;2023-04-26T00:06:55;3.00;;;2.90;;
11735;SDS011;5924;51.398;7.088;2023-04-26T00:09:21;5.17;;;3.30;;
11735;SDS011;5924;51.398;7.088;2023-04-26T00:11:47;4.67;;;3.57;;
11735;SDS011;5924;51.398;7.088;2023-04-26T00:14:13;3.67;;;3.47;;
11735;SDS011;5924;51.398;7.088;2023-04-26T00:16:39;8.77;;;3.40;;
11735;SDS011;5924;51.398;7.088;2023-04-26T00:19:04;3.73;;;3.47;;
11735;SDS011;5924;51.398;7.088;2023-04-26T00:21:30;3.63;;;3.33;;
11735;SDS011;5924;51.398;7.088;2023-04-26T00:23:56;12.83;;;3.90;;
11735;SDS011;5924;51.398;7.088;2023-04-26T00:26:21;22.80;;;4.93;;
11735;SDS011;5924;51.398;7.088;2023-04-26T00:28:47;11.00;;;4.43;;
11735;SDS011;5924;51.398;7.088;2023-04-26T00:31:16;8.90;;;4.07;;
11735;SDS011;5924;51.398;7.088;2023-04-26T00:33:42;11.00;;;4.67;;
11735;SDS011;5924;51.398;7.088;2023-04-26T00:36:08;6.50;;;4.20;;
11735;SDS011;5924;51.398;7.088;2023-04-26T00:38:34;6.60;;;4.23;;
11735;SDS011;5924;51.398;7.088;2023-04-26T00:41:00;10.10;;;4.47;;
11735;SDS011;5924;51.398;7.088;2023-04-26T00:43:26;13.77;;;5.77;;
11735;SDS011;5924;51.398;7.088;2023-04-26T00:45:52;10.60;;;5.60;;
11735;SDS011;5924;51.398;7.088;2023-04-26T00:48:17;13.00;;;6.70;;
11735;SDS011;5924;51.398;7.088;2023-04-26T00:50:44;12.00;;;4.83;;
11735;SDS011;5924;51.398;7.088;2023-04-26T00:53:11;14.90;;;5.17;;
11735;SDS011;5924;51.398;7.088;2023-04-26T00:55:42;6.73;;;3.97;;
11735;SDS011;5924;51.398;7.088;2023-04-26T00:58:08;5.70;;;3.90;;
11735;SDS011;5924;51.398;7.088;2023-04-26T01:00:34;9.93;;;5.10;;
11735;SDS011;5924;51.398;7.088;2023-04-26T01:03:00;4.20;;;3.90;;
11735;SDS011;5924;51.398;7.088;2023-04-26T01:05:26;6.40;;;4.07;;
11735;SDS011;5924;51.398;7.088;2023-04-26T01:07:51;5.03;;;4.20;;
11735;SDS011;5924;51.398;7.088;2023-04-26T01:10:17;4.70;;;3.53;;
11735;SDS011;5924;51.398;7.088;2023-04-26T01:12:43;3.43;;;3.23;;
11735;SDS011;5924;51.398;7.088;2023-04-26T01:15:09;3.47;;;3.10;;
11735;SDS011;5924;51.398;7.088;2023-04-26T01:17:36;4.80;;;3.60;;
11735;SDS011;5924;51.398;7.088;2023-04-26T01:20:02;5.13;;;3.10;;
11735;SDS011;5924;51.398;7.088;2023-04-26T01:22:34;5.60;;;3.37;;
11735;SDS011;5924;51.398;7.088;2023-04-26T01:25:00;3.67;;;3.23;;
11735;SDS011;5924;51.398;7.088;2023-04-26T01:27:28;3.73;;;2.67;;
11735;SDS011;5924;51.398;7.088;2023-04-26T01:29:53;3.47;;;3.27;;
11735;SDS011;5924;51.398;7.088;2023-04-26T01:32:19;2.90;;;2.70;;
11735;SDS011;5924;51.398;7.088;2023-04-26T01:34:45;3.07;;;2.87;;
11735;SDS011;5924;51.398;7.088;2023-04-26T01:37:11;3.40;;;3.20;;
11735;SDS011;5924;51.398;7.088;2023-04-26T01:39:36;3.10;;;2.90;;
11735;SDS011;5924;51.398;7.088;2023-04-26T01:42:03;4.17;;;2.80;;
11735;SDS011;5924;51.398;7.088;2023-04-26T01:44:29;3.20;;;3.00;;
11735;SDS011;5924;51.398;7.088;2023-04-26T01:46:55;2.80;;;2.70;;
11735;SDS011;5924;51.398;7.088;2023-04-26T01:49:21;3.20;;;3.10;;
11735;SDS011;5924;51.398;7.088;2023-04-26T01:51:47;2.97;;;2.87;;
11735;SDS011;5924;51.398;7.088;2023-04-26T01:54:12;3.13;;;2.83;;
11735;SDS011;5924;51.398;7.088;2023-04-26T01:56:38;3.03;;;2.93;;
11735;SDS011;5924;51.398;7.088;2023-04-26T01:59:04;6.20;;;3.17;;
11735;SDS011;5924;51.398;7.088;2023-04-26T02:01:29;4.80;;;3.50;;
11735;SDS011;5924;51.398;7.088;2023-04-26T02:03:55;7.53;;;4.13;;
11735;SDS011;5924;51.398;7.088;2023-04-26T02:06:21;4.00;;;3.00;;
11735;SDS011;5924;51.398;7.088;2023-04-26T02:08:47;3.97;;;3.67;;
11735;SDS011;5924;51.398;7.088;2023-04-26T02:11:13;7.80;;;4.37;;
11735;SDS011;5924;51.398;7.088;2023-04-26T02:13:39;4.20;;;3.90;;
11735;SDS011;5924;51.398;7.088;2023-04-26T02:16:04;7.43;;;4.13;;
11735;SDS011;5924;51.398;7.088;2023-04-26T02:18:31;5.70;;;4.57;;
11735;SDS011;5924;51.398;7.088;2023-04-26T02:20:57;3.20;;;3.00;;
11735;SDS011;5924;51.398;7.088;2023-04-26T02:23:22;4.03;;;3.80;;
11735;SDS011;5924;51.398;7.088;2023-04-26T02:25:48;4.50;;;3.47;;
11735;SDS011;5924;51.398;7.088;2023-04-26T02:28:14;4.27;;;3.97;;
11735;SDS011;5924;51.398;7.088;2023-04-26T02:30:40;5.83;;;3.87;;
11735;SDS011;5924;51.398;7.088;2023-04-26T02:33:06;10.43;;;4.77;;
11735;SDS011;5924;51.398;7.088;2023-04-26T02:35:35;5.00;;;4.50;;
11735;SDS011;5924;51.398;7.088;2023-04-26T02:38:01;4.77;;;4.40;;
11735;SDS011;5924;51.398;7.088;2023-04-26T02:40:27;9.67;;;4.63;;
11735;SDS011;5924;51.398;7.088;2023-04-26T02:42:54;8.73;;;4.83;;
11735;SDS011;5924;51.398;7.088;2023-04-26T02:45:20;9.43;;;6.30;;
11735;SDS011;5924;51.398;7.088;2023-04-26T02:47:46;12.17;;;7.43;;
11735;SDS011;5924;51.398;7.088;2023-04-26T02:50:11;7.10;;;5.83;;
11735;SDS011;5924;51.398;7.088;2023-04-26T02:52:37;5.73;;;5.20;;
11735;SDS011;5924;51.398;7.088;2023-04-26T02:55:03;9.67;;;5.60;;
11735;SDS011;5924;51.398;7.088;2023-04-26T02:57:30;9.87;;;5.50;;
11735;SDS011;5924;51.398;7.088;2023-04-26T02:59:56;8.20;;;5.30;;
11735;SDS011;5924;51.398;7.088;2023-04-26T03:02:22;6.50;;;5.30;;
11735;SDS011;5924;51.398;7.088;2023-04-26T03:04:48;7.33;;;5.03;;
11735;SDS011;5924;51.398;7.088;2023-04-26T03:07:14;6.07;;;4.67;;
11735;SDS011;5924;51.398;7.088;2023-04-26T03:09:40;4.73;;;4.37;;
11735;SDS011;5924;51.398;7.088;2023-04-26T03:12:06;10.03;;;5.10;;
11735;SDS011;5924;51.398;7.088;2023-04-26T03:14:32;4.10;;;3.90;;
11735;SDS011;5924;51.398;7.088;2023-04-26T03:16:58;5.40;;;4.30;;
11735;SDS011;5924;51.398;7.088;2023-04-26T03:19:24;3.67;;;3.20;;
11735;SDS011;5924;51.398;7.088;2023-04-26T03:21:51;3.93;;;3.57;;
11735;SDS011;5924;51.398;7.088;2023-04-26T03:24:17;3.60;;;3.40;;
11735;SDS011;5924;51.398;7.088;2023-04-26T03:26:42;4.50;;;3.70;;
11735;SDS011;5924;51.398;7.088;2023-04-26T03:29:08;4.10;;;3.80;;
11735;SDS011;5924;51.398;7.088;2023-04-26T03:31:34;3.90;;;3.70;;
11735;SDS011;5924;51.398;7.088;2023-04-26T03:33:59;4.90;;;4.47;;
11735;SDS011;5924;51.398;7.088;2023-04-26T03:36:25;5.10;;;4.60;;
11735;SDS011;5924;51.398;7.088;2023-04-26T03:38:52;4.83;;;4.40;;
11735;SDS011;5924;51.398;7.088;2023-04-26T03:41:18;4.07;;;3.77;;
11735;SDS011;5924;51.398;7.088;2023-04-26T03:43:44;8.00;;;3.83;;
11735;SDS011;5924;51.398;7.088;2023-04-26T03:46:10;4.93;;;4.13;;
11735;SDS011;5924;51.398;7.088;2023-04-26T03:48:36;3.93;;;3.63;;
11735;SDS011;5924;51.398;7.088;2023-04-26T03:51:01;4.77;;;4.37;;
11735;SDS011;5924;51.398;7.088;2023-04-26T03:53:27;4.67;;;4.27;;
11735;SDS011;5924;51.398;7.088;2023-04-26T03:55:53;4.97;;;4.47;;
11735;SDS011;5924;51.398;7.088;2023-04-26T03:58:19;4.13;;;3.83;;
11735;SDS011;5924;51.398;7.088;2023-04-26T04:00:45;4.70;;;4.30;;
11735;SDS011;5924;51.398;7.088;2023-04-26T04:03:11;5.40;;;4.10;;
11735;SDS011;5924;51.398;7.088;2023-04-26T04:05:36;3.77;;;3.57;;
11735;SDS011;5924;51.398;7.088;2023-04-26T04:08:02;6.10;;;4.30;;
11735;SDS011;5924;51.398;7.088;2023-04-26T04:10:28;3.67;;;3.43;;
11735;SDS011;5924;51.398;7.088;2023-04-26T04:12:54;3.33;;;3.13;;
11735;SDS011;5924;51.398;7.088;2023-04-26T04:15:20;4.07;;;3.77;;
11735;SDS011;5924;51.398;7.088;2023-04-26T04:17:45;3.80;;;3.60;;
11735;SDS011;5924;51.398;7.088;2023-04-26T04:20:11;5.30;;;3.70;;
11735;SDS011;5924;51.398;7.088;2023-04-26T04:22:38;5.50;;;3.63;;
11735;SDS011;5924;51.398;7.088;2023-04-26T04:25:04;5.70;;;4.40;;
11735;SDS011;5924;51.398;7.088;2023-04-26T04:27:31;5.30;;;4.07;;
11735;SDS011;5924;51.398;7.088;2023-04-26T04:29:57;8.00;;;4.60;;
11735;SDS011;5924;51.398;7.088;2023-04-26T04:32:22;8.03;;;4.43;;
11735;SDS011;5924;51.398;7.088;2023-04-26T04:34:48;5.27;;;4.27;;
11735;SDS011;5924;51.398;7.088;2023-04-26T04:37:16;4.70;;;4.30;;
11735;SDS011;5924;51.398;7.088;2023-04-26T04:39:42;5.70;;;3.73;;
11735;SDS011;5924;51.398;7.088;2023-04-26T04:42:08;4.27;;;3.83;;
11735;SDS011;5924;51.398;7.088;2023-04-26T04:44:34;4.27;;;3.90;;
11735;SDS011;5924;51.398;7.088;2023-04-26T04:47:00;6.50;;;4.50;;
11735;SDS011;5924;51.398;7.088;2023-04-26T04:49:26;5.40;;;4.00;;
11735;SDS011;5924;51.398;7.088;2023-04-26T04:51:52;4.57;;;4.27;;
11735;SDS011;5924;51.398;7.088;2023-04-26T04:54:18;5.00;;;4.70;;
11735;SDS011;5924;51.398;7.088;2023-04-26T04:56:44;4.13;;;3.83;;
11735;SDS011;5924;51.398;7.088;2023-04-26T04:59:10;7.43;;;5.60;;
11735;SDS011;5924;51.398;7.088;2023-04-26T05:01:36;4.73;;;4.37;;
11735;SDS011;5924;51.398;7.088;2023-04-26T05:04:02;8.60;;;4.73;;
11735;SDS011;5924;51.398;7.088;2023-04-26T05:06:31;5.00;;;4.60;;
11735;SDS011;5924;51.398;7.088;2023-04-26T05:08:57;5.60;;;4.30;;
11735;SDS011;5924;51.398;7.088;2023-04-26T05:11:23;6.03;;;4.30;;
11735;SDS011;5924;51.398;7.088;2023-04-26T05:13:49;6.77;;;4.80;;
11735;SDS011;5924;51.398;7.088;2023-04-26T05:16:15;4.63;;;4.40;;
11735;SDS011;5924;51.398;7.088;2023-04-26T05:18:41;7.20;;;5.10;;
11735;SDS011;5924;51.398;7.088;2023-04-26T05:21:07;9.73;;;6.10;;
11735;SDS011;5924;51.398;7.088;2023-04-26T05:23:33;8.70;;;5.27;;
11735;SDS011;5924;51.398;7.088;2023-04-26T05:26:04;6.67;;;5.93;;
11735;SDS011;5924;51.398;7.088;2023-04-26T05:28:30;10.87;;;6.50;;
11735;SDS011;5924;51.398;7.088;2023-04-26T05:30:56;13.70;;;5.80;;
11735;SDS011;5924;51.398;7.088;2023-04-26T05:33:23;7.03;;;5.63;;
11735;SDS011;5924;51.398;7.088;2023-04-26T05:35:49;11.93;;;6.18;;
11735;SDS011;5924;51.398;7.088;2023-04-26T05:38:14;5.53;;;5.13;;
11735;SDS011;5924;51.398;7.088;2023-04-26T05:40:40;5.60;;;5.10;;
11735;SDS011;5924;51.398;7.088;2023-04-26T05:43:06;4.87;;;4.47;;
11735;SDS011;5924;51.398;7.088;2023-04-26T05:45:32;6.07;;;5.50;;
11735;SDS011;5924;51.398;7.088;2023-04-26T05:47:58;6.37;;;5.77;;
11735;SDS011;5924;51.398;7.088;2023-04-26T05:50:23;12.07;;;5.67;;
11735;SDS011;5924;51.398;7.088;2023-04-26T05:52:49;7.67;;;5.03;;
11735;SDS011;5924;51.398;7.088;2023-04-26T05:55:15;11.43;;;6.73;;
11735;SDS011;5924;51.398;7.088;2023-04-26T05:57:40;7.90;;;6.40;;
11735;SDS011;5924;51.398;7.088;2023-04-26T06:00:06;6.90;;;6.30;;
11735;SDS011;5924;51.398;7.088;2023-04-26T06:02:36;6.40;;;5.80;;
11735;SDS011;5924;51.398;7.088;2023-04-26T06:05:01;9.87;;;6.70;;
11735;SDS011;5924;51.398;7.088;2023-04-26T06:07:29;6.77;;;5.67;;
11735;SDS011;5924;51.398;7.088;2023-04-26T06:09:55;6.97;;;6.20;;
11735;SDS011;5924;51.398;7.088;2023-04-26T06:12:21;10.30;;;6.33;;
11735;SDS011;5924;51.398;7.088;2023-04-26T06:14:46;11.90;;;6.20;;
11735;SDS011;5924;51.398;7.088;2023-04-26T06:17:12;17.43;;;7.67;;
11735;SDS011;5924;51.398;7.088;2023-04-26T06:19:38;10.73;;;7.20;;
11735;SDS011;5924;51.398;7.088;2023-04-26T06:22:03;10.83;;;6.43;;
11735;SDS011;5924;51.398;7.088;2023-04-26T06:24:29;15.73;;;8.63;;
11735;SDS011;5924;51.398;7.088;2023-04-26T06:26:55;12.57;;;7.67;;
11735;SDS011;5924;51.398;7.088;2023-04-26T06:29:21;19.00;;;8.70;;
11735;SDS011;5924;51.398;7.088;2023-04-26T06:31:46;21.90;;;10.10;;
11735;SDS011;5924;51.398;7.088;2023-04-26T06:34:12;14.63;;;8.27;;
11735;SDS011;5924;51.398;7.088;2023-04-26T06:36:38;20.97;;;10.70;;
11735;SDS011;5924;51.398;7.088;2023-04-26T06:39:03;15.43;;;9.87;;
11735;SDS011;5924;51.398;7.088;2023-04-26T06:41:29;24.57;;;10.83;;
11735;SDS011;5924;51.398;7.088;2023-04-26T06:43:55;21.50;;;9.70;;
11735;SDS011;5924;51.398;7.088;2023-04-26T06:46:20;26.23;;;11.77;;
11735;SDS011;5924;51.398;7.088;2023-04-26T06:48:46;18.33;;;10.70;;
11735;SDS011;5924;51.398;7.088;2023-04-26T06:51:12;17.40;;;11.50;;
11735;SDS011;5924;51.398;7.088;2023-04-26T06:53:37;36.43;;;13.60;;
11735;SDS011;5924;51.398;7.088;2023-04-26T06:56:03;25.30;;;11.97;;
11735;SDS011;5924;51.398;7.088;2023-04-26T06:58:29;23.17;;;10.83;;
11735;SDS011;5924;51.398;7.088;2023-04-26T07:00:55;30.17;;;12.30;;
11735;SDS011;5924;51.398;7.088;2023-04-26T07:03:20;19.43;;;10.53;;
11735;SDS011;5924;51.398;7.088;2023-04-26T07:05:46;34.20;;;11.40;;
11735;SDS011;5924;51.398;7.088;2023-04-26T07:08:12;22.00;;;10.00;;
11735;SDS011;5924;51.398;7.088;2023-04-26T07:10:38;19.73;;;9.43;;
11735;SDS011;5924;51.398;7.088;2023-04-26T07:13:05;19.97;;;9.80;;
11735;SDS011;5924;51.398;7.088;2023-04-26T07:15:31;18.20;;;9.90;;
11735;SDS011;5924;51.398;7.088;2023-04-26T07:17:57;22.13;;;12.17;;
11735;SDS011;5924;51.398;7.088;2023-04-26T07:20:22;29.03;;;11.10;;
11735;SDS011;5924;51.398;7.088;2023-04-26T07:22:48;20.83;;;10.07;;
11735;SDS011;5924;51.398;7.088;2023-04-26T07:25:15;19.63;;;10.03;;
11735;SDS011;5924;51.398;7.088;2023-04-26T07:27:41;25.30;;;10.00;;
11735;SDS011;5924;51.398;7.088;2023-04-26T07:30:07;16.80;;;8.80;;
11735;SDS011;5924;51.398;7.088;2023-04-26T07:32:34;14.50;;;8.70;;
11735;SDS011;5924;51.398;7.088;2023-04-26T07:35:01;35.03;;;10.48;;
11735;SDS011;5924;51.398;7.088;2023-04-26T07:37:30;18.97;;;9.43;;
11735;SDS011;5924;51.398;7.088;2023-04-26T07:39:55;15.80;;;8.20;;
11735;SDS011;5924;51.398;7.088;2023-04-26T07:42:21;12.00;;;6.77;;
11735;SDS011;5924;51.398;7.088;2023-04-26T07:44:47;18.03;;;6.87;;
11735;SDS011;5924;51.398;7.088;2023-04-26T07:47:13;7.97;;;5.10;;
11735;SDS011;5924;51.398;7.088;2023-04-26T07:49:39;17.97;;;4.40;;
11735;SDS011;5924;51.398;7.088;2023-04-26T07:52:05;14.67;;;4.40;;
11735;SDS011;5924;51.398;7.088;2023-04-26T07:54:32;8.10;;;3.42;;
11735;SDS011;5924;51.398;7.088;2023-04-26T07:56:58;3.43;;;2.30;;
11735;SDS011;5924;51.398;7.088;2023-04-26T07:59:23;4.20;;;2.40;;
11735;SDS011;5924;51.398;7.088;2023-04-26T08:01:49;5.27;;;2.23;;
11735;SDS011;5924;51.398;7.088;2023-04-26T08:04:16;6.93;;;3.00;;
11735;SDS011;5924;51.398;7.088;2023-04-26T08:06:42;3.73;;;2.30;;
11735;SDS011;5924;51.398;7.088;2023-04-26T08:09:11;6.20;;;2.13;;
11735;SDS011;5924;51.398;7.088;2023-04-26T08:11:36;5.00;;;2.30;;
11735;SDS011;5924;51.398;7.088;2023-04-26T08:14:02;8.47;;;3.77;;
11735;SDS011;5924;51.398;7.088;2023-04-26T08:16:28;14.10;;;4.57;;
11735;SDS011;5924;51.398;7.088;2023-04-26T08:18:53;7.47;;;3.97;;
11735;SDS011;5924;51.398;7.088;2023-04-26T08:21:19;6.53;;;3.05;;
11735;SDS011;5924;51.398;7.088;2023-04-26T08:23:45;6.70;;;3.10;;
11735;SDS011;5924;51.398;7.088;2023-04-26T08:26:11;13.63;;;5.90;;
11735;SDS011;5924;51.398;7.088;2023-04-26T08:28:36;8.93;;;4.00;;
11735;SDS011;5924;51.398;7.088;2023-04-26T08:31:02;3.50;;;3.20;;
11735;SDS011;5924;51.398;7.088;2023-04-26T08:33:28;8.80;;;2.90;;
11735;SDS011;5924;51.398;7.088;2023-04-26T08:35:54;5.10;;;2.77;;
11735;SDS011;5924;51.398;7.088;2023-04-26T08:38:20;4.20;;;2.80;;
11735;SDS011;5924;51.398;7.088;2023-04-26T08:40:49;4.87;;;2.70;;
11735;SDS011;5924;51.398;7.088;2023-04-26T08:43:15;4.90;;;3.23;;
11735;SDS011;5924;51.398;7.088;2023-04-26T08:45:41;4.80;;;2.40;;
11735;SDS011;5924;51.398;7.088;2023-04-26T08:48:10;7.63;;;3.10;;
11735;SDS011;5924;51.398;7.088;2023-04-26T08:50:40;4.60;;;2.70;;
11735;SDS011;5924;51.398;7.088;2023-04-26T08:53:10;5.00;;;2.90;;
11735;SDS011;5924;51.398;7.088;2023-04-26T08:55:39;7.03;;;2.30;;
11735;SDS011;5924;51.398;7.088;2023-04-26T08:58:06;7.03;;;2.70;;
11735;SDS011;5924;51.398;7.088;2023-04-26T09:00:33;3.90;;;2.33;;
11735;SDS011;5924;51.398;7.088;2023-04-26T09:02:59;11.73;;;2.60;;
11735;SDS011;5924;51.398;7.088;2023-04-26T09:05:25;8.47;;;3.20;;
11735;SDS011;5924;51.398;7.088;2023-04-26T09:07:59;4.53;;;2.90;;
11735;SDS011;5924;51.398;7.088;2023-04-26T09:10:29;10.27;;;2.60;;
11735;SDS011;5924;51.398;7.088;2023-04-26T09:12:56;9.67;;;3.27;;
11735;SDS011;5924;51.398;7.088;2023-04-26T09:15:23;5.70;;;2.67;;
11735;SDS011;5924;51.398;7.088;2023-04-26T09:17:50;6.70;;;2.93;;
11735;SDS011;5924;51.398;7.088;2023-04-26T09:23:05;5.43;;;3.53;;
11735;SDS011;5924;51.398;7.088;2023-04-26T09:25:32;3.97;;;3.23;;
11735;SDS011;5924;51.398;7.088;2023-04-26T09:27:59;3.83;;;3.43;;
11735;SDS011;5924;51.398;7.088;2023-04-26T09:30:26;9.10;;;3.77;;
11735;SDS011;5924;51.398;7.088;2023-04-26T09:35:37;3.35;;;3.15;;
11735;SDS011;5924;51.398;7.088;2023-04-26T09:38:08;2.93;;;2.73;;
11735;SDS011;5924;51.398;7.088;2023-04-26T09:43:10;9.02;;;4.28;;
11735;SDS011;5924;51.398;7.088;2023-04-26T09:48:14;6.10;;;3.80;;
11735;SDS011;5924;51.398;7.088;2023-04-26T09:50:41;8.60;;;4.55;;
11735;SDS011;5924;51.398;7.088;2023-04-26T09:53:09;11.98;;;5.00;;
11735;SDS011;5924;51.398;7.088;2023-04-26T09:55:35;5.80;;;5.27;;
11735;SDS011;5924;51.398;7.088;2023-04-26T09:58:10;9.47;;;5.17;;
11735;SDS011;5924;51.398;7.088;2023-04-26T10:00:37;20.37;;;4.70;;
11735;SDS011;5924;51.398;7.088;2023-04-26T10:03:03;8.85;;;3.85;;
11735;SDS011;5924;51.398;7.088;2023-04-26T10:05:31;11.23;;;4.13;;
11735;SDS011;5924;51.398;7.088;2023-04-26T10:07:57;4.00;;;3.33;;
11735;SDS011;5924;51.398;7.088;2023-04-26T10:10:23;4.20;;;3.80;;
11735;SDS011;5924;51.398;7.088;2023-04-26T10:12:49;4.73;;;3.67;;
11735;SDS011;5924;51.398;7.088;2023-04-26T10:15:15;17.03;;;4.00;;
11735;SDS011;5924;51.398;7.088;2023-04-26T10:17:42;5.05;;;3.78;;
11735;SDS011;5924;51.398;7.088;2023-04-26T10:20:09;10.27;;;3.60;;
11735;SDS011;5924;51.398;7.088;2023-04-26T10:22:58;3.83;;;3.53;;
11735;SDS011;5924;51.398;7.088;2023-04-26T10:25:36;9.40;;;4.23;;
11735;SDS011;5924;51.398;7.088;2023-04-26T10:28:03;5.60;;;3.53;;
11735;SDS011;5924;51.398;7.088;2023-04-26T10:30:29;5.23;;;2.90;;
11735;SDS011;5924;51.398;7.088;2023-04-26T10:35:28;6.23;;;3.40;;
11735;SDS011;5924;51.398;7.088;2023-04-26T10:40:30;4.80;;;3.55;;
11735;SDS011;5924;51.398;7.088;2023-04-26T10:45:35;3.70;;;3.40;;
11735;SDS011;5924;51.398;7.088;2023-04-26T10:58:47;3.80;;;2.40;;
11735;SDS011;5924;51.398;7.088;2023-04-26T11:06:22;9.73;;;2.87;;
11735;SDS011;5924;51.398;7.088;2023-04-26T11:08:48;12.60;;;3.23;;
11735;SDS011;5924;51.398;7.088;2023-04-26T11:11:15;6.57;;;3.10;;
11735;SDS011;5924;51.398;7.088;2023-04-26T11:13:43;5.72;;;2.90;;
11735;SDS011;5924;51.398;7.088;2023-04-26T11:16:13;6.90;;;2.33;;
11735;SDS011;5924;51.398;7.088;2023-04-26T11:18:41;7.13;;;3.17;;
11735;SDS011;5924;51.398;7.088;2023-04-26T11:21:08;9.07;;;3.40;;
11735;SDS011;5924;51.398;7.088;2023-04-26T11:23:35;4.10;;;3.00;;
11735;SDS011;5924;51.398;7.088;2023-04-26T11:26:02;8.50;;;3.07;;
11735;SDS011;5924;51.398;7.088;2023-04-26T11:28:29;4.07;;;2.90;;
11735;SDS011;5924;51.398;7.088;2023-04-26T11:30:58;3.17;;;2.97;;
11735;SDS011;5924;51.398;7.088;2023-04-26T11:33:24;3.07;;;2.87;;
11735;SDS011;5924;51.398;7.088;2023-04-26T11:35:51;5.70;;;2.40;;
11735;SDS011;5924;51.398;7.088;2023-04-26T11:38:23;2.87;;;2.67;;
11735;SDS011;5924;51.398;7.088;2023-04-26T11:40:56;2.50;;;2.30;;
11735;SDS011;5924;51.398;7.088;2023-04-26T11:43:22;6.87;;;2.77;;
11735;SDS011;5924;51.398;7.088;2023-04-26T11:45:59;6.10;;;2.40;;
11735;SDS011;5924;51.398;7.088;2023-04-26T11:48:25;5.60;;;2.57;;
11735;SDS011;5924;51.398;7.088;2023-04-26T11:50:55;4.77;;;2.90;;
11735;SDS011;5924;51.398;7.088;2023-04-26T11:53:33;5.57;;;3.03;;
11735;SDS011;5924;51.398;7.088;2023-04-26T11:56:01;8.20;;;2.47;;
11735;SDS011;5924;51.398;7.088;2023-04-26T11:58:27;6.77;;;2.70;;
11735;SDS011;5924;51.398;7.088;2023-04-26T12:00:59;5.90;;;2.93;;
11735;SDS011;5924;51.398;7.088;2023-04-26T12:03:29;4.90;;;2.60;;
11735;SDS011;5924;51.398;7.088;2023-04-26T12:05:57;3.53;;;2.40;;
11735;SDS011;5924;51.398;7.088;2023-04-26T12:08:23;7.80;;;3.50;;
11735;SDS011;5924;51.398;7.088;2023-04-26T12:10:50;4.60;;;2.60;;
11735;SDS011;5924;51.398;7.088;2023-04-26T12:13:16;2.77;;;2.57;;
11735;SDS011;5924;51.398;7.088;2023-04-26T12:15:44;3.03;;;2.20;;
11735;SDS011;5924;51.398;7.088;2023-04-26T12:18:11;3.80;;;3.00;;
11735;SDS011;5924;51.398;7.088;2023-04-26T12:20:37;2.30;;;2.13;;
11735;SDS011;5924;51.398;7.088;2023-04-26T12:23:05;7.70;;;3.17;;
11735;SDS011;5924;51.398;7.088;2023-04-26T12:25:37;2.57;;;2.47;;
11735;SDS011;5924;51.398;7.088;2023-04-26T12:28:04;4.32;;;2.67;;
11735;SDS011;5924;51.398;7.088;2023-04-26T12:30:35;6.00;;;2.90;;
11735;SDS011;5924;51.398;7.088;2023-04-26T12:33:01;2.47;;;2.37;;
11735;SDS011;5924;51.398;7.088;2023-04-26T12:35:27;4.60;;;2.83;;
11735;SDS011;5924;51.398;7.088;2023-04-26T12:37:53;4.23;;;2.10;;
11735;SDS011;5924;51.398;7.088;2023-04-26T12:40:20;9.80;;;2.60;;
11735;SDS011;5924;51.398;7.088;2023-04-26T12:42:47;4.00;;;2.63;;
11735;SDS011;5924;51.398;7.088;2023-04-26T12:45:14;6.90;;;3.73;;
11735;SDS011;5924;51.398;7.088;2023-04-26T12:47:40;4.20;;;2.73;;
11735;SDS011;5924;51.398;7.088;2023-04-26T12:50:06;3.28;;;2.65;;
11735;SDS011;5924;51.398;7.088;2023-04-26T12:52:32;5.10;;;3.37;;
11735;SDS011;5924;51.398;7.088;2023-04-26T12:54:57;3.17;;;2.90;;
11735;SDS011;5924;51.398;7.088;2023-04-26T12:57:23;4.50;;;2.70;;
11735;SDS011;5924;51.398;7.088;2023-04-26T12:59:49;4.53;;;2.60;;
11735;SDS011;5924;51.398;7.088;2023-04-26T13:02:15;9.53;;;2.60;;
11735;SDS011;5924;51.398;7.088;2023-04-26T13:04:41;4.03;;;2.73;;
11735;SDS011;5924;51.398;7.088;2023-04-26T13:07:06;5.90;;;2.70;;
11735;SDS011;5924;51.398;7.088;2023-04-26T13:09:32;2.53;;;2.33;;
11735;SDS011;5924;51.398;7.088;2023-04-26T13:11:58;4.93;;;3.20;;
11735;SDS011;5924;51.398;7.088;2023-04-26T13:14:24;5.40;;;2.80;;
11735;SDS011;5924;51.398;7.088;2023-04-26T13:16:49;3.37;;;2.60;;
11735;SDS011;5924;51.398;7.088;2023-04-26T13:19:16;2.50;;;2.33;;
11735;SDS011;5924;51.398;7.088;2023-04-26T13:21:42;3.47;;;2.30;;
11735;SDS011;5924;51.398;7.088;2023-04-26T13:24:07;6.20;;;2.70;;
11735;SDS011;5924;51.398;7.088;2023-04-26T13:26:33;5.10;;;2.90;;
11735;SDS011;5924;51.398;7.088;2023-04-26T13:28:59;5.97;;;2.93;;
11735;SDS011;5924;51.398;7.088;2023-04-26T13:31:25;2.63;;;2.53;;
11735;SDS011;5924;51.398;7.088;2023-04-26T13:33:51;2.30;;;2.20;;
11735;SDS011;5924;51.398;7.088;2023-04-26T13:36:16;6.17;;;2.30;;
11735;SDS011;5924;51.398;7.088;2023-04-26T13:38:43;3.60;;;2.70;;
11735;SDS011;5924;51.398;7.088;2023-04-26T13:41:09;3.73;;;3.03;;
11735;SDS011;5924;51.398;7.088;2023-04-26T13:43:35;3.83;;;2.80;;
11735;SDS011;5924;51.398;7.088;2023-04-26T13:46:01;4.20;;;3.10;;
11735;SDS011;5924;51.398;7.088;2023-04-26T13:48:26;8.00;;;2.90;;
11735;SDS011;5924;51.398;7.088;2023-04-26T13:50:52;2.90;;;2.70;;
11735;SDS011;5924;51.398;7.088;2023-04-26T13:53:20;7.03;;;2.70;;
11735;SDS011;5924;51.398;7.088;2023-04-26T13:55:46;2.30;;;2.20;;
11735;SDS011;5924;51.398;7.088;2023-04-26T13:58:12;4.60;;;2.00;;
11735;SDS011;5924;51.398;7.088;2023-04-26T14:00:38;3.00;;;2.70;;
11735;SDS011;5924;51.398;7.088;2023-04-26T14:03:04;3.00;;;2.80;;
11735;SDS011;5924;51.398;7.088;2023-04-26T14:05:29;7.40;;;3.10;;
11735;SDS011;5924;51.398;7.088;2023-04-26T14:07:55;2.83;;;2.63;;
11735;SDS011;5924;51.398;7.088;2023-04-26T14:10:21;5.00;;;2.87;;
11735;SDS011;5924;51.398;7.088;2023-04-26T14:12:47;6.23;;;2.60;;
11735;SDS011;5924;51.398;7.088;2023-04-26T14:15:13;8.00;;;2.97;;
11735;SDS011;5924;51.398;7.088;2023-04-26T14:17:39;4.00;;;3.10;;
11735;SDS011;5924;51.398;7.088;2023-04-26T14:20:05;4.97;;;2.60;;
11735;SDS011;5924;51.398;7.088;2023-04-26T14:22:32;2.93;;;2.37;;
11735;SDS011;5924;51.398;7.088;2023-04-26T14:24:58;4.23;;;2.60;;
11735;SDS011;5924;51.398;7.088;2023-04-26T14:27:23;3.77;;;2.10;;
11735;SDS011;5924;51.398;7.088;2023-04-26T14:29:49;2.60;;;2.50;;
11735;SDS011;5924;51.398;7.088;2023-04-26T14:32:15;11.03;;;4.50;;
11735;SDS011;5924;51.398;7.088;2023-04-26T14:34:40;9.77;;;2.90;;
11735;SDS011;5924;51.398;7.088;2023-04-26T14:37:07;5.60;;;3.00;;
11735;SDS011;5924;51.398;7.088;2023-04-26T14:39:33;3.30;;;2.47;;
11735;SDS011;5924;51.398;7.088;2023-04-26T14:41:59;5.50;;;2.70;;
11735;SDS011;5924;51.398;7.088;2023-04-26T14:44:25;3.30;;;3.10;;
11735;SDS011;5924;51.398;7.088;2023-04-26T14:46:51;3.80;;;2.80;;
11735;SDS011;5924;51.398;7.088;2023-04-26T14:49:18;6.30;;;2.37;;
11735;SDS011;5924;51.398;7.088;2023-04-26T14:51:43;3.77;;;2.53;;
11735;SDS011;5924;51.398;7.088;2023-04-26T14:54:09;4.60;;;2.40;;
11735;SDS011;5924;51.398;7.088;2023-04-26T14:56:35;12.33;;;2.80;;
11735;SDS011;5924;51.398;7.088;2023-04-26T14:59:02;17.27;;;4.07;;
11735;SDS011;5924;51.398;7.088;2023-04-26T15:01:28;5.50;;;3.57;;
11735;SDS011;5924;51.398;7.088;2023-04-26T15:03:54;3.90;;;2.70;;
11735;SDS011;5924;51.398;7.088;2023-04-26T15:06:20;3.97;;;3.27;;
11735;SDS011;5924;51.398;7.088;2023-04-26T15:08:46;8.63;;;3.27;;
11735;SDS011;5924;51.398;7.088;2023-04-26T15:11:12;5.47;;;3.30;;
11735;SDS011;5924;51.398;7.088;2023-04-26T15:13:38;2.83;;;2.67;;
11735;SDS011;5924;51.398;7.088;2023-04-26T15:16:03;3.40;;;3.03;;
11735;SDS011;5924;51.398;7.088;2023-04-26T15:18:30;4.43;;;3.63;;
11735;SDS011;5924;51.398;7.088;2023-04-26T15:20:59;2.90;;;2.80;;
11735;SDS011;5924;51.398;7.088;2023-04-26T15:23:24;12.13;;;4.10;;
11735;SDS011;5924;51.398;7.088;2023-04-26T15:25:50;7.53;;;3.70;;
11735;SDS011;5924;51.398;7.088;2023-04-26T15:28:16;4.63;;;3.47;;